• Join FlightAware (Why Join?)
  • Login
  • US Flag 
03:31AM EDT


 

Airport Tracker/Info


-or-


 

Live Flight TrackerFlight Track Log ✈ UAL3732 ✈ 09-Jul-2013 ✈ KIAD - KMCI

Flight Track Log - Related Links

Times and Time Zones

All times are in EDT time to prevent confusion due to time zone crossing. See the UAL3732 flight status page for this flight to view local times or setup timezone preferences in your user account.

Time Position Orientation Groundspeed Altitude Reporting Facility
EDT Latitude Longitude Course Direction KTS MPH feet Rate Location/Type
09:01AM 38.9500 -77.5167 237° Southwest 172 198 1,600  Level Potomac TRACON
09:02AM 38.9167 -77.5833 237° Southwest 251 289 2,800 1,980 Climbing Potomac TRACON
09:03AM 38.9014 -77.6883 259° West 260 299 6,000 2,880 Climbing Washington Center
09:04AM 38.8914 -77.7839 262° West 275 316 9,200 2,280 Climbing Washington Center
09:05AM 38.8858 -77.8583 265° West 275 316 10,700 1,620 Climbing Washington Center
09:06AM 38.8728 -77.9861 263° West 300 345 12,500 1,920 Climbing Washington Center
09:07AM 38.8622 -78.1056 264° West 325 374 14,500 1,800 Climbing Washington Center
09:08AM 38.8531 -78.2306 265° West 345 397 16,100 1,500 Climbing Washington Center
09:09AM 38.8522 -78.3611 270° West 360 414 17,600 1,440 Climbing Washington Center
09:10AM 38.8514 -78.4944 270° West 370 426 19,100 1,440 Climbing Washington Center
09:11AM 38.8500 -78.6303 269° West 376 433 20,500 1,380 Climbing Washington Center
09:12AM 38.8483 -78.7717 269° West 387 445 21,900 1,140 Climbing Washington Center
09:13AM 38.8447 -78.9128 268° West 394 453 22,900 900 Climbing Washington Center
09:14AM 38.8425 -79.0619 269° West 407 468 23,800 960 Climbing Washington Center
09:15AM 38.8422 -79.2164 270° West 424 488 24,900 900 Climbing Washington Center
09:16AM 38.8375 -79.3681 268° West 431 496 25,700 900 Climbing Washington Center
09:17AM 38.8344 -79.5225 269° West 443 510 26,800 960 Climbing Washington Center
09:18AM 38.8328 -79.7036 269° West 448 516 27,700 900 Climbing Washington Center
09:19AM 38.8292 -79.8661 268° West 453 521 28,700 840 Climbing Washington Center
09:20AM 38.8236 -80.0150 267° West 459 528 29,400 660 Climbing Washington Center
09:21AM 38.8197 -80.1772 268° West 459 528 30,100 600 Climbing Washington Center
09:22AM 38.8150 -80.3528 268° West 459 528 30,700 600 Climbing Washington Center
09:23AM 38.8083 -80.5567 268° West 468 539 31,500 600 Climbing Indianapolis Center
09:24AM 38.8025 -80.7239 267° West 468 539 32,100 600 Climbing Indianapolis Center
09:25AM 38.7978 -80.8897 268° West 467 537 32,800 720 Climbing Indianapolis Center
09:26AM 38.7919 -81.0519 267° West 459 528 33,600 540 Climbing Indianapolis Center
09:27AM 38.7869 -81.2161 268° West 461 531 34,000 180 Climbing Indianapolis Center
09:28AM 38.7808 -81.4150 268° West 470 541 34,000  Level Indianapolis Center
09:29AM 38.7736 -81.5719 267° West 479 551 34,000  Level Indianapolis Center
09:30AM 38.7672 -81.7494 267° West 486 559 34,000  Level Indianapolis Center
09:32AM 38.7600 -81.9178 267° West 478 550 34,000  Level Indianapolis Center
09:33AM 38.7519 -82.1200 267° West 476 548 34,000  Level Indianapolis Center
09:34AM 38.7458 -82.2878 267° West 473 544 34,000  Level Indianapolis Center
09:35AM 38.7383 -82.4558 267° West 473 544 34,000  Level Indianapolis Center
09:36AM 38.7317 -82.6253 267° West 477 549 34,000  Level Indianapolis Center
09:37AM 38.7239 -82.7953 267° West 478 550 34,000 240 Level Indianapolis Center
09:38AM 38.7175 -82.9650 267° West 479 551 34,600 840 Climbing Indianapolis Center
09:39AM 38.7083 -83.1622 267° West 464 534 35,800 960 Climbing Indianapolis Center
09:40AM 38.7064 -83.3206 269° West 456 525 36,700 960 Climbing Indianapolis Center
09:41AM 38.7156 -83.4761 274° West 438 504 37,800 600 Climbing Indianapolis Center
09:42AM 38.7231 -83.6314 274° West 432 497 38,000 60 Climbing Indianapolis Center
09:43AM 38.7303 -83.7903 273° West 438 504 38,000  Level Indianapolis Center
09:44AM 38.7383 -83.9528 274° West 450 518 38,000  Level Indianapolis Center
09:45AM 38.7458 -84.1169 273° West 457 526 38,000  Level Indianapolis Center
09:46AM 38.7542 -84.3089 273° West 459 528 38,000  Level Indianapolis Center
09:47AM 38.7617 -84.4744 273° West 460 529 38,000  Level Indianapolis Center
09:48AM 38.7672 -84.6258 273° West 462 532 38,000  Level Indianapolis Center
09:49AM 38.7747 -84.7892 273° West 461 531 38,000  Level Indianapolis Center
09:50AM 38.7825 -84.9856 273° West 461 531 38,000  Level Indianapolis Center
09:51AM 38.7889 -85.1500 273° West 462 532 38,000  Level Indianapolis Center
09:52AM 38.7944 -85.3144 273° West 462 532 38,000  Level Indianapolis Center
09:53AM 38.7997 -85.4797 272° West 464 534 38,000  Level Indianapolis Center
09:54AM 38.8047 -85.6450 272° West 465 535 38,000  Level Indianapolis Center
09:55AM 38.8094 -85.8111 272° West 467 537 38,000  Level Indianapolis Center
09:56AM 38.8164 -86.0031 273° West 469 540 38,000  Level Indianapolis Center
09:57AM 38.8203 -86.1683 272° West 466 536 38,000  Level Indianapolis Center
09:58AM 38.8250 -86.3342 272° West 466 536 38,000  Level Indianapolis Center
09:59AM 38.8306 -86.5014 272° West 469 540 38,000  Level Indianapolis Center
10:00AM 38.8339 -86.6681 272° West 469 540 38,000  Level Indianapolis Center
10:02AM 38.8386 -86.8694 272° West 472 543 38,000  Level Indianapolis Center
10:03AM 38.8419 -87.0372 272° West 473 544 38,000  Level Indianapolis Center
10:04AM 38.8453 -87.2053 272° West 474 545 38,000  Level Indianapolis Center
10:05AM 38.8481 -87.3717 271° West 470 541 38,000  Level Indianapolis Center
10:06AM 38.8506 -87.5414 271° West 475 547 38,000  Level Indianapolis Center
10:07AM 38.8542 -87.7408 271° West 468 539 38,000  Level Indianapolis Center
10:08AM 38.8558 -87.9078 271° West 468 539 38,000  Level Indianapolis Center
10:09AM 38.8581 -88.0733 271° West 465 535 38,000  Level Indianapolis Center
10:10AM 38.8600 -88.2389 271° West 466 536 38,000  Level Indianapolis Center
10:11AM 38.8608 -88.4067 270° West 468 539 38,000  Level Indianapolis Center
10:12AM 38.8625 -88.5717 271° West 465 535 38,000  Level Indianapolis Center
10:13AM 38.8633 -88.7375 270° West 465 535 38,000  Level Indianapolis Center
10:14AM 38.9000 -88.9258 284° West 456 525 38,000  Level Indianapolis Center
10:15AM 38.9372 -89.0822 287° West 456 525 38,000  Level Indianapolis Center
10:16AM 38.9714 -89.2392 286° West 456 525 38,000  Level Indianapolis Center
10:17AM 39.0058 -89.3944 286° West 452 520 38,000  Level Indianapolis Center
10:18AM 39.0586 -89.6228 287° West 455 524 38,000  Level Kansas City Center
10:19AM 39.0928 -89.7778 286° West 454 522 38,000  Level Kansas City Center
10:20AM 39.1292 -89.9439 286° West 450 518 38,000  Level Kansas City Center
10:21AM 39.1575 -90.0753 286° West 447 514 38,000  Level Kansas City Center
10:23AM 39.1986 -90.2614 286° West 452 520 38,000  Level Kansas City Center
10:24AM 39.2317 -90.4169 285° West 454 522 38,000  Level Kansas City Center
10:25AM 39.2647 -90.5725 285° West 454 522 38,000  Level Kansas City Center
10:26AM 39.2975 -90.7264 285° West 451 519 38,000  Level Kansas City Center
10:27AM 39.3294 -90.8831 285° West 453 521 38,000  Level Kansas City Center
10:28AM 39.3703 -91.0697 286° West 453 521 38,000  Level Kansas City Center
10:29AM 39.4028 -91.2261 285° West 453 521 38,000  Level Kansas City Center
10:30AM 39.4350 -91.3828 285° West 454 522 38,000  Level Kansas City Center
10:31AM 39.4667 -91.5400 285° West 453 521 38,000  Level Kansas City Center
10:32AM 39.4994 -91.7056 284° West 454 522 38,000  Level Kansas City Center
10:33AM 39.5319 -91.8631 285° West 456 525 38,000  Level Kansas City Center
10:34AM 39.5628 -92.0225 284° West 458 527 38,000  Level Kansas City Center
10:35AM 39.6014 -92.2108 285° West 454 522 38,000  Level Kansas City Center
10:36AM 39.6325 -92.3717 284° West 458 527 38,000  Level Kansas City Center
10:37AM 39.6531 -92.5333 279° West 455 524 38,000  Level Kansas City Center
10:38AM 39.6503 -92.6983 269° West 457 526 38,000 -300 Level Kansas City Center
10:39AM 39.6492 -92.8622 270° West 456 525 37,400 -2,400 Descending Kansas City Center
10:40AM 39.6458 -93.0269 269° West 457 526 33,100 -4,440 Descending Kansas City Center
10:41AM 39.6433 -93.2217 269° West 454 522 28,300 -4,320 Descending Kansas City Center
10:42AM 39.6406 -93.3814 269° West 450 518 24,200 -3,900 Descending Kansas City Center
10:43AM 39.6378 -93.5383 269° West 443 510 20,300 -3,900 Descending Kansas City Center
10:44AM 39.6350 -93.6828 269° West 409 471 16,200 -4,020 Descending Kansas City Center
10:45AM 39.6328 -93.8431 269° West 385 443 12,100 -2,700 Descending Kansas City Center
10:46AM 39.5944 -93.9478 245° Southwest 335 386 10,700 -1,380 Descending Kansas City Center
10:47AM 39.5464 -94.0458 238° Southwest 290 334 9,300 -1,680 Descending Kansas City Center
10:48AM 39.5203 -94.1303 248° West 267 307 7,300 -1,140 Descending Kansas City Center
10:49AM 39.5042 -94.2242 257° West 277 319 7,000 -180 Descending Kansas City Center
10:50AM 39.4994 -94.3183 266° West 232 267 7,000  Level Kansas City Center
10:51AM 39.5033 -94.3978 274° West 232 267 7,000 -420 Level Kansas City Center
10:53AM 39.5069 -94.4881 273° West 226 260 6,200 -840 Descending Kansas City Center
10:54AM 39.4997 -94.5639 263° West 223 257 5,300 -1,200 Descending Kansas City Center
10:55AM 39.4794 -94.6397 251° West 208 239 3,800 -1,080 Descending Kansas City Center
10:56AM 39.4428 -94.6725 215° Southwest 163 188 3,100 -720 Descending Kansas City Center
10:57AM 39.4017 -94.6967 204° Southwest 151 174 2,400 -600 Descending Kansas City Center
10:58AM 39.3683 -94.7075 194° South 130 150 1,900 -660 Descending Kansas City Center
10:59AM 39.3292 -94.7186 192° South 129 148 1,100 -540 Descending Kansas City Center
11:00AM 39.3036 -94.7258 192° South 90 104 900 -240 Descending Kansas City Center